NY41 weather

Best Western Red Jacket Inn Heliport
Niagara Falls, New York, United States

Public forecast

Using degrees Fahrenheit for public forecast. Weather courtesy of forecast.io.

METAR (pilot weather report)

Closest report is Niagara Falls International Airport, 2.7 nm (5.0 km) NE. Retrieved 2019/06/27 04:53 UTC (51 minutes ago):

KIAG 270453Z AUTO 00000KT 10SM CLR 18/15 A3011 RMK AO2 SLP192 T01830150 402830167 $

TAF (pilot weather forecast)

Forecast is more than 12 hours old.

Closest forecast is Niagara Falls International Airport, 2.7 nm (5.0 km) NE. Retrieved 2019/06/26 00:34 UTC (1 day ago):

TAF KIAG 262331Z 2700/2724 25008KT P6SM FEW050 FM270400 22004KT P6SM SKC FM271500 24010KT P6SM FEW250